Time;durP1;ratioP1;P1;durP2;ratioP2;P2;SDS_P1;SDS_P2;PMS_P1;PMS_P2;Temp;Humidity;BMP_temperature;BMP_pressure;BME280_temperature;BME280_humidity;BME280_pressure;Samples;Min_cycle;Max_cycle;Signal;HPM_P1;HPM_P2
2021/03/29 00:00:38;;;;;;;17.25;11.27;;;;;;;4.59;96.82;99505.63;5093241;28;20024;-75
2021/03/29 00:03:04;;;;;;;16.13;11.30;;;;;;;4.72;96.47;99516.41;5074266;28;20036;-74
2021/03/29 00:05:32;;;;;;;17.35;11.95;;;;;;;4.62;95.96;99516.88;5074790;28;20478;-74
2021/03/29 00:08:07;;;;;;;16.45;10.68;;;;;;;4.73;96.24;99509.94;5092176;28;20028;-75
2021/03/29 00:10:34;;;;;;;14.95;10.98;;;;;;;4.69;95.48;99512.25;5076177;28;20024;-75
2021/03/29 00:13:01;;;;;;;17.15;10.20;;;;;;;4.52;96.52;99510.25;5075332;28;20469;-74
2021/03/29 00:15:30;;;;;;;17.05;10.93;;;;;;;4.66;96.60;99522.69;5075055;28;20035;-76
2021/03/29 00:17:56;;;;;;;22.63;12.63;;;;;;;4.72;96.42;99516.41;5093841;28;20046;-75
2021/03/29 00:20:25;;;;;;;13.23;9.90;;;;;;;4.38;96.02;99490.56;5075738;28;20032;-74
2021/03/29 00:22:53;;;;;;;18.15;12.57;;;;;;;4.48;96.59;99511.78;5092910;28;20034;-74
2021/03/29 00:25:21;;;;;;;16.38;10.57;;;;;;;4.32;96.99;99503.09;5092920;28;20016;-74
2021/03/29 00:27:47;;;;;;;14.88;10.73;;;;;;;4.32;97.26;99502.28;5092975;28;20057;-74
2021/03/29 00:30:18;;;;;;;13.75;10.02;;;;;;;4.62;96.89;99522.28;5093926;28;20040;-75
2021/03/29 00:32:45;;;;;;;18.98;11.65;;;;;;;4.58;96.00;99503.97;5095160;28;20024;-74
2021/03/29 00:35:17;;;;;;;21.20;11.38;;;;;;;4.63;96.37;99512.28;5094042;28;20536;-75
2021/03/29 00:37:47;;;;;;;18.25;11.15;;;;;;;4.59;95.85;99505.63;5076941;28;20048;-74
2021/03/29 00:40:14;;;;;;;16.65;10.95;;;;;;;4.64;96.11;99522.91;5094668;28;20035;-75
2021/03/29 00:42:41;;;;;;;18.20;11.40;;;;;;;4.39;96.67;99515.75;5075509;28;20467;-77
2021/03/29 00:45:16;;;;;;;14.68;10.68;;;;;;;4.30;97.91;99510.59;5093508;28;20032;-75
2021/03/29 00:47:43;;;;;;;20.77;11.25;;;;;;;4.41;97.98;99508.25;5074471;28;20024;-75
2021/03/29 00:50:10;;;;;;;20.13;12.50;;;;;;;4.40;97.68;99509.28;5075419;28;20024;-75
2021/03/29 00:52:36;;;;;;;16.35;11.57;;;;;;;4.47;97.27;99508.22;5076658;28;20024;-75
2021/03/29 00:55:02;;;;;;;17.52;12.52;;;;;;;4.29;97.82;99500.81;5076983;28;20062;-75
2021/03/29 00:57:28;;;;;;;19.17;11.40;;;;;;;4.46;97.55;99493.00;5077394;28;20024;-75
2021/03/29 00:59:54;;;;;;;17.88;11.65;;;;;;;4.65;96.93;99511.03;5095015;28;20039;-75
2021/03/29 01:02:20;;;;;;;17.58;11.85;;;;;;;4.37;96.92;99502.44;5076982;28;20118;-75
2021/03/29 01:04:45;;;;;;;15.45;10.70;;;;;;;4.53;97.41;99512.78;5057893;28;20017;-75
2021/03/29 01:07:11;;;;;;;15.85;11.65;;;;;;;4.49;97.35;99526.97;5058003;28;20037;-75
2021/03/29 01:09:38;;;;;;;21.38;11.60;;;;;;;4.59;97.31;99527.31;5077727;28;20021;-76
2021/03/29 01:12:07;;;;;;;15.10;12.68;;;;;;;4.44;97.30;99515.94;5073708;28;20021;-76
2021/03/29 01:14:36;;;;;;;17.33;12.13;;;;;;;4.17;98.46;99510.66;5054788;28;20028;-76
2021/03/29 01:17:10;;;;;;;20.55;12.23;;;;;;;4.16;99.03;99511.72;5072092;28;20028;-75
2021/03/29 01:19:45;;;;;;;17.52;11.90;;;;;;;4.11;99.04;99513.41;5068561;28;20061;-75
2021/03/29 01:22:12;;;;;;;15.32;12.57;;;;;;;4.02;99.25;99504.69;5054679;28;20082;-77
2021/03/29 01:24:51;;;;;;;18.52;11.35;;;;;;;3.99;99.90;99510.53;5054096;28;20413;-75
2021/03/29 01:27:21;;;;;;;20.55;11.77;;;;;;;3.93;100.00;99506.00;5071607;28;20036;-74
2021/03/29 01:29:48;;;;;;;16.85;12.32;;;;;;;4.04;99.77;99494.47;5072684;28;20025;-75
2021/03/29 01:32:14;;;;;;;17.45;13.18;;;;;;;4.21;98.87;99498.38;5073914;28;20035;-75
2021/03/29 01:34:42;;;;;;;16.83;11.98;;;;;;;4.35;98.46;99499.13;5078059;28;20035;-75
2021/03/29 01:37:09;;;;;;;15.65;11.15;;;;;;;4.11;98.62;99500.69;5061398;28;20047;-75
2021/03/29 01:39:35;;;;;;;13.05;10.25;;;;;;;4.03;99.23;99484.72;5077368;28;20031;-74
2021/03/29 01:42:03;;;;;;;17.08;10.50;;;;;;;4.07;99.04;99493.25;5056557;28;20032;-75
2021/03/29 01:44:29;;;;;;;20.40;11.18;;;;;;;3.99;99.01;99479.94;5056286;28;20043;-74
2021/03/29 01:46:55;;;;;;;16.08;10.05;;;;;;;4.03;99.15;99498.25;5074136;28;20083;-74
2021/03/29 01:49:22;;;;;;;13.65;9.23;;;;;;;3.98;99.21;99495.34;5057851;28;20029;-76
2021/03/29 01:51:48;;;;;;;16.95;11.40;;;;;;;3.97;99.39;99500.97;5060165;28;20020;-75
2021/03/29 01:54:15;;;;;;;18.98;9.48;;;;;;;3.94;99.50;99496.84;5079420;28;20146;-74
2021/03/29 01:56:40;;;;;;;17.05;10.75;;;;;;;3.98;99.14;99492.63;5077909;28;20031;-74
2021/03/29 01:59:06;;;;;;;13.88;9.98;;;;;;;4.02;99.11;99502.00;5077688;28;20032;-73
2021/03/29 02:01:32;;;;;;;16.58;9.50;;;;;;;4.12;98.57;99496.13;5059567;28;20420;-74
2021/03/29 02:03:58;;;;;;;16.67;9.80;;;;;;;4.29;98.32;99506.22;5076638;28;20123;-74
2021/03/29 02:06:26;;;;;;;18.02;9.20;;;;;;;4.36;97.89;99498.06;5077762;28;20039;-74
2021/03/29 02:08:52;;;;;;;19.05;9.98;;;;;;;4.40;97.51;99498.47;5058947;28;20028;-74
2021/03/29 02:11:19;;;;;;;16.77;9.43;;;;;;;4.29;98.20;99495.41;5075358;28;20746;-74
2021/03/29 02:13:47;;;;;;;14.77;9.57;;;;;;;4.31;98.16;99497.91;5075883;28;20020;-76
2021/03/29 02:16:15;;;;;;;13.68;9.82;;;;;;;4.24;98.34;99502.50;5076199;28;20021;-74
2021/03/29 02:18:55;;;;;;;13.02;8.95;;;;;;;4.28;98.48;99482.91;5058560;28;20031;-74
2021/03/29 02:21:24;;;;;;;13.88;8.98;;;;;;;4.11;98.60;99487.16;5077307;28;20413;-74
2021/03/29 02:23:57;;;;;;;10.63;8.65;;;;;;;4.27;98.50;99502.91;5057770;28;20050;-73
2021/03/29 02:26:25;;;;;;;13.45;8.93;;;;;;;4.39;98.52;99499.50;5077286;28;20115;-76
2021/03/29 02:28:52;;;;;;;12.25;9.07;;;;;;;4.29;98.82;99500.81;5058891;28;20477;-74
2021/03/29 02:31:19;;;;;;;12.63;9.40;;;;;;;4.11;98.83;99476.34;5058014;28;20473;-74
2021/03/29 02:33:48;;;;;;;13.13;8.02;;;;;;;4.20;99.01;99485.03;5075664;28;20491;-74
2021/03/29 02:36:16;;;;;;;13.48;9.60;;;;;;;4.15;99.29;99498.41;5076713;28;20028;-74
2021/03/29 02:38:42;;;;;;;12.38;9.77;;;;;;;4.08;99.75;99493.00;5077055;28;20179;-75
2021/03/29 02:41:07;;;;;;;14.27;8.80;;;;;;;4.05;99.60;99498.03;5079172;28;20079;-74
2021/03/29 02:43:34;;;;;;;12.75;8.23;;;;;;;3.97;99.34;99484.75;5078352;28;20469;-74
2021/03/29 02:46:02;;;;;;;11.98;8.95;;;;;;;3.87;99.19;99490.63;5078919;28;20034;-75
2021/03/29 02:48:35;;;;;;;11.88;7.88;;;;;;;3.70;99.56;99484.00;5078077;28;20032;-75
2021/03/29 02:51:03;;;;;;;17.45;8.07;;;;;;;3.84;99.66;99498.31;5059843;28;20035;-75
2021/03/29 02:53:32;;;;;;;11.48;8.15;;;;;;;3.93;98.34;99484.34;5061627;28;20035;-76
2021/03/29 02:56:01;;;;;;;13.48;8.80;;;;;;;3.86;99.00;99488.94;5061985;28;20024;-76
2021/03/29 02:58:28;;;;;;;10.52;9.15;;;;;;;3.71;99.48;99491.09;5060604;28;20036;-75
2021/03/29 03:00:55;;;;;;;12.43;9.02;;;;;;;3.88;98.69;99497.69;5082710;28;20032;-75
2021/03/29 03:03:21;;;;;;;13.23;9.25;;;;;;;3.70;98.91;99478.59;5079345;28;20024;-75
2021/03/29 03:05:47;;;;;;;10.40;8.15;;;;;;;3.93;98.19;99495.16;5080366;28;20032;-74
2021/03/29 03:08:13;;;;;;;14.05;7.65;;;;;;;3.95;97.76;99489.53;5082789;28;20039;-75
2021/03/29 03:10:39;;;;;;;10.15;7.88;;;;;;;3.88;98.06;99486.88;5064143;28;20028;-74
2021/03/29 03:13:09;;;;;;;16.92;8.60;;;;;;;3.90;98.10;99500.16;5080416;28;20031;-74
2021/03/29 03:15:37;;;;;;;10.65;7.85;;;;;;;3.90;98.24;99501.00;5078151;28;20032;-74
2021/03/29 03:18:04;;;;;;;11.15;8.45;;;;;;;3.80;97.93;99506.03;5061307;28;20093;-74
2021/03/29 03:20:33;;;;;;;16.38;9.60;;;;;;;3.61;98.98;99507.75;5080051;28;20028;-74
2021/03/29 03:23:09;;;;;;;13.80;8.95;;;;;;;3.47;99.06;99499.91;5061256;28;20025;-74
2021/03/29 03:25:37;;;;;;;13.95;10.82;;;;;;;3.44;99.52;99503.03;5076620;28;20024;-75
2021/03/29 03:28:05;;;;;;;22.75;10.88;;;;;;;3.31;99.37;99482.25;5061186;28;20032;-74
2021/03/29 03:30:34;;;;;;;18.15;13.13;;;;;;;3.26;100.00;99506.38;5060793;28;20552;-74
2021/03/29 03:33:01;;;;;;;13.40;10.30;;;;;;;3.31;100.00;99505.75;5076602;28;20020;-74
2021/03/29 03:35:28;;;;;;;12.05;10.13;;;;;;;3.35;100.00;99507.00;5061427;28;20499;-74
2021/03/29 03:37:57;;;;;;;13.98;10.60;;;;;;;3.40;99.48;99496.38;5062126;28;20436;-74
2021/03/29 03:40:23;;;;;;;16.17;10.95;;;;;;;3.43;99.12;99491.38;5062351;28;20397;-76
2021/03/29 03:42:56;;;;;;;16.08;11.65;;;;;;;3.50;98.87;99505.72;5062310;28;20111;-74
2021/03/29 03:45:26;;;;;;;12.82;9.80;;;;;;;3.15;100.00;99486.22;5080898;28;20036;-75
2021/03/29 03:47:53;;;;;;;16.13;10.43;;;;;;;3.30;100.00;99493.25;5080361;28;20099;-76
2021/03/29 03:50:19;;;;;;;13.90;8.65;;;;;;;3.28;100.00;99498.91;5062114;28;20077;-74
2021/03/29 03:52:46;;;;;;;10.60;8.85;;;;;;;3.39;99.97;99505.50;5080169;28;20013;-74
2021/03/29 03:55:15;;;;;;;13.85;9.27;;;;;;;3.43;99.69;99504.91;5062523;28;20463;-74
2021/03/29 03:57:41;;;;;;;14.40;8.82;;;;;;;3.29;99.57;99491.63;5081176;28;20056;-74
2021/03/29 04:00:10;;;;;;;13.25;9.07;;;;;;;3.16;99.57;99498.69;5080898;28;20024;-74
2021/03/29 04:02:36;;;;;;;9.68;7.97;;;;;;;3.35;99.45;99501.59;5063658;28;20072;-75
2021/03/29 04:05:06;;;;;;;14.13;8.40;;;;;;;3.29;99.84;99505.94;5062596;28;20044;-75
2021/03/29 04:07:32;;;;;;;13.05;8.95;;;;;;;3.20;99.34;99496.41;5060272;28;20036;-76
2021/03/29 04:10:05;;;;;;;14.73;9.25;;;;;;;3.02;99.43;99496.22;5060651;28;20385;-75
2021/03/29 04:12:31;;;;;;;9.10;7.70;;;;;;;3.04;100.00;99500.34;5078141;28;20029;-76
2021/03/29 04:14:56;;;;;;;11.45;9.00;;;;;;;3.09;99.41;99492.47;5078360;28;20028;-76
2021/03/29 04:17:22;;;;;;;;;;;;;;;3.33;98.63;99503.66;5076841;28;20024;-75
2021/03/29 04:19:47;;;;;;;10.40;7.80;;;;;;;3.43;98.06;99504.06;5080986;28;19912;-74
2021/03/29 04:22:12;;;;;;;11.73;8.85;;;;;;;3.34;97.87;99508.03;5084349;28;20020;-75
2021/03/29 04:24:38;;;;;;;14.27;10.30;;;;;;;3.23;98.56;99499.50;5099822;28;20035;-76
2021/03/29 04:27:04;;;;;;;15.15;9.88;;;;;;;3.29;98.04;99497.84;5101992;28;20039;-76
2021/03/29 04:29:32;;;;;;;14.70;9.65;;;;;;;3.32;98.08;99499.31;5082395;28;20079;-75
2021/03/29 04:31:58;;;;;;;14.85;13.10;;;;;;;3.12;98.79;99505.56;5096813;28;20030;-75
2021/03/29 04:34:26;;;;;;;14.52;10.98;;;;;;;3.10;99.49;99515.75;5076986;28;20058;-75
2021/03/29 04:36:52;;;;;;;19.60;11.60;;;;;;;3.10;99.75;99513.03;5077112;28;20134;-78
2021/03/29 04:39:17;;;;;;;15.95;10.30;;;;;;;3.15;99.56;99497.03;5095980;28;20056;-80
2021/03/29 04:41:43;;;;;;;15.40;11.13;;;;;;;3.09;99.34;99497.03;5082964;28;20027;-78
2021/03/29 04:44:08;;;;;;;12.82;9.15;;;;;;;3.21;99.56;99528.63;5100698;28;20552;-78
2021/03/29 04:46:34;;;;;;;12.95;9.68;;;;;;;3.21;99.02;99523.22;5101354;28;20043;-76
2021/03/29 04:48:59;;;;;;;14.93;9.18;;;;;;;3.08;99.57;99522.41;5080215;28;20111;-76
2021/03/29 04:51:26;;;;;;;15.68;9.15;;;;;;;3.14;100.00;99537.78;5076149;28;20016;-77
2021/03/29 04:53:59;;;;;;;17.88;10.02;;;;;;;2.97;100.00;99536.53;5096768;28;20028;-78
2021/03/29 04:56:25;;;;;;;16.17;10.73;;;;;;;3.11;100.00;99549.00;5094598;28;20008;-78
2021/03/29 04:58:50;;;;;;;14.55;9.20;;;;;;;3.11;100.00;99527.38;5074730;28;20701;-77
2021/03/29 05:01:18;;;;;;;13.70;9.40;;;;;;;3.07;100.00;99526.97;5094677;28;20093;-76
2021/03/29 05:03:43;;;;;;;12.27;9.82;;;;;;;3.23;100.00;99537.38;5077000;28;20070;-79
2021/03/29 05:06:09;;;;;;;15.60;11.25;;;;;;;3.17;100.00;99526.56;5074305;28;20044;-74
2021/03/29 05:08:34;;;;;;;17.65;11.13;;;;;;;3.29;100.00;99545.69;5087138;28;20432;-83
2021/03/29 05:11:02;;;;;;;20.00;11.65;;;;;;;3.22;100.00;99533.00;5092651;28;20024;-82
2021/03/29 05:13:28;;;;;;;17.20;12.82;;;;;;;3.23;100.00;99540.06;5101943;28;20383;-83
2021/03/29 05:15:53;;;;;;;19.35;11.25;;;;;;;3.32;100.00;99547.97;5120717;28;20040;-79
2021/03/29 05:18:19;;;;;;;15.88;11.32;;;;;;;3.37;100.00;99532.78;5101285;28;20021;-85
2021/03/29 05:20:44;;;;;;;17.83;12.98;;;;;;;3.41;100.00;99535.91;5115917;28;20032;-87
2021/03/29 05:23:09;;;;;;;19.73;14.63;;;;;;;3.43;99.95;99558.16;5091744;28;20016;-87
2021/03/29 05:25:35;;;;;;;20.23;13.60;;;;;;;3.63;99.15;99558.97;5107697;28;20027;-85
2021/03/29 05:28:03;;;;;;;15.02;11.48;;;;;;;3.52;99.45;99559.59;5109109;28;20138;-84
2021/03/29 05:30:29;;;;;;;21.00;10.68;;;;;;;3.60;99.24;99559.38;5095247;28;20060;-74
2021/03/29 05:32:54;;;;;;;13.18;9.00;;;;;;;3.86;97.77;99559.31;5075039;28;20104;-74
2021/03/29 05:35:20;;;;;;;14.82;10.35;;;;;;;3.84;97.88;99569.53;5075541;28;20066;-73
2021/03/29 05:37:45;;;;;;;13.02;9.18;;;;;;;4.08;97.08;99560.69;5094957;28;20076;-74
2021/03/29 05:40:16;;;;;;;16.23;9.68;;;;;;;4.08;96.43;99567.97;5096961;28;20035;-75
2021/03/29 05:42:42;;;;;;;14.40;10.02;;;;;;;4.24;96.62;99573.75;5078861;28;20031;-74
2021/03/29 05:45:09;;;;;;;14.98;9.32;;;;;;;4.09;96.27;99578.59;5095390;28;20024;-75
2021/03/29 05:47:35;;;;;;;17.38;9.10;;;;;;;4.16;96.68;99579.41;5093243;28;20032;-73
2021/03/29 05:50:04;;;;;;;14.77;9.80;;;;;;;4.43;95.86;99582.00;5077579;28;20031;-79
2021/03/29 05:52:30;;;;;;;15.57;11.35;;;;;;;4.75;95.44;99586.44;5096250;28;20028;-79
2021/03/29 05:54:56;;;;;;;14.43;9.55;;;;;;;5.10;93.18;99595.78;5095128;28;20124;-80
2021/03/29 05:57:23;;;;;;;14.95;8.75;;;;;;;5.18;92.20;99592.81;5077229;28;20539;-78
2021/03/29 05:59:49;;;;;;;16.42;9.25;;;;;;;5.32;91.59;99588.94;5095014;28;20059;-77
2021/03/29 06:02:32;;;;;;;11.65;8.40;;;;;;;5.26;90.44;99589.00;5095390;28;20040;-79
2021/03/29 06:04:58;;;;;;;12.55;9.70;;;;;;;5.47;90.36;99601.34;5094379;28;20013;-81
2021/03/29 06:07:29;;;;;;;13.13;8.43;;;;;;;5.21;90.26;99611.34;5094391;28;20036;-82
2021/03/29 06:10:05;;;;;;;11.20;9.18;;;;;;;5.51;91.00;99608.00;5076785;28;20115;-79
2021/03/29 06:12:42;;;;;;;12.55;8.18;;;;;;;5.65;89.73;99599.50;5095444;28;20020;-84
2021/03/29 06:15:10;;;;;;;18.25;10.93;;;;;;;5.51;89.24;99602.56;5077316;28;20032;-81
2021/03/29 06:17:35;;;;;;;11.63;8.30;;;;;;;5.38;89.71;99603.50;5095171;28;20538;-80
2021/03/29 06:20:00;;;;;;;18.50;10.25;;;;;;;5.48;89.82;99608.44;5093417;28;20024;-84
2021/03/29 06:22:37;;;;;;;15.40;9.63;;;;;;;5.46;89.49;99611.34;5095894;28;20028;-80
2021/03/29 06:25:15;;;;;;;16.08;9.15;;;;;;;5.61;89.29;99605.59;5094216;28;20031;-85
2021/03/29 06:27:41;;;;;;;12.35;9.55;;;;;;;5.66;89.50;99620.16;5093947;28;20028;-84
2021/03/29 06:30:25;;;;;;;12.60;9.30;;;;;;;5.68;89.81;99614.50;5097164;28;20035;-85
2021/03/29 06:33:12;;;;;;;14.18;8.65;;;;;;;5.68;89.51;99628.06;5097980;28;20024;-84
2021/03/29 06:35:40;;;;;;;18.90;9.48;;;;;;;5.64;89.95;99622.25;5095919;28;20500;-79
2021/03/29 06:38:14;;;;;;;11.38;8.70;;;;;;;5.75;89.16;99623.44;5095350;28;20484;-82
2021/03/29 06:40:43;;;;;;;16.77;9.45;;;;;;;5.96;88.20;99623.03;5095689;28;20523;-81
2021/03/29 06:43:23;;;;;;;13.57;9.63;;;;;;;6.12;87.26;99629.75;5081246;28;20521;-85
2021/03/29 06:45:57;;;;;;;14.52;9.27;;;;;;;6.17;86.50;99628.03;5101857;28;20039;-86
2021/03/29 06:48:26;;;;;;;25.02;9.20;;;;;;;6.44;85.42;99614.97;5097156;28;20139;-82
2021/03/29 06:51:02;;;;;;;17.40;11.30;;;;;;;6.58;84.80;99619.19;5096534;28;20111;-82
2021/03/29 06:53:27;;;;;;;15.65;9.80;;;;;;;6.53;84.67;99612.78;5087538;28;20032;-80
2021/03/29 06:55:56;;;;;;;10.23;8.63;;;;;;;6.88;83.45;99617.34;5070754;28;20101;-81
2021/03/29 06:58:27;;;;;;;17.00;9.52;;;;;;;6.94;83.24;99612.84;5077465;28;20055;-83
2021/03/29 07:00:57;;;;;;;17.77;9.95;;;;;;;7.10;82.63;99631.25;5095345;28;20027;-81
2021/03/29 07:03:23;;;;;;;21.15;9.40;;;;;;;7.19;82.95;99624.41;5077954;28;20103;-83
2021/03/29 07:05:49;;;;;;;18.27;11.65;;;;;;;7.18;81.60;99628.19;5078226;28;20491;-79
2021/03/29 07:08:15;;;;;;;12.77;8.98;;;;;;;7.42;80.80;99627.19;5074904;28;20059;-79
2021/03/29 07:10:41;;;;;;;15.88;11.25;;;;;;;7.48;80.82;99633.59;5094484;28;20027;-79
2021/03/29 07:13:09;;;;;;;12.45;8.43;;;;;;;7.69;80.12;99618.59;5093801;28;20020;-79
2021/03/29 07:15:36;;;;;;;14.85;10.70;;;;;;;7.78;79.15;99631.63;5074506;28;20027;-79
2021/03/29 07:18:02;;;;;;;16.02;10.93;;;;;;;7.76;79.29;99632.94;5075237;28;20097;-79
2021/03/29 07:20:27;;;;;;;16.25;9.50;;;;;;;7.92;79.47;99624.88;5076321;28;20376;-79
2021/03/29 07:22:54;;;;;;;18.88;11.30;;;;;;;7.84;79.27;99625.22;5094913;28;20028;-81
2021/03/29 07:25:22;;;;;;;17.23;11.20;;;;;;;8.15;77.98;99624.03;5076324;28;20039;-82
2021/03/29 07:27:56;;;;;;;12.43;9.50;;;;;;;8.54;76.48;99628.75;5076762;28;20028;-82
2021/03/29 07:30:43;;;;;;;9.10;7.80;;;;;;;9.24;73.79;99625.75;5094578;28;20016;-80
2021/03/29 07:33:10;;;;;;;12.15;8.65;;;;;;;10.08;69.95;99627.44;5093174;28;20024;-82
2021/03/29 07:36:02;;;;;;;13.82;9.20;;;;;;;10.53;67.42;99638.19;5077622;28;20473;-81
2021/03/29 07:38:54;;;;;;;17.38;9.82;;;;;;;10.59;68.06;99628.97;5073814;28;20047;-81
2021/03/29 07:41:23;;;;;;;11.55;8.88;;;;;;;10.55;67.40;99625.13;5095204;28;20028;-83
2021/03/29 07:44:18;;;;;;;14.63;10.02;;;;;;;11.02;65.54;99635.53;5077180;28;20024;-82
2021/03/29 07:46:47;;;;;;;13.20;8.55;;;;;;;10.86;65.93;99630.97;5080401;28;20027;-84
2021/03/29 07:49:45;;;;;;;17.00;10.20;;;;;;;9.83;69.77;99634.41;5083417;28;20124;-83
2021/03/29 07:52:35;;;;;;;12.55;9.93;;;;;;;9.97;69.61;99630.25;5099498;28;20025;-79
2021/03/29 07:55:14;;;;;;;16.13;9.38;;;;;;;10.79;67.26;99628.41;5074933;28;20070;-82
2021/03/29 07:57:43;;;;;;;12.70;9.30;;;;;;;11.74;63.50;99639.59;5092968;28;20055;-79
2021/03/29 08:00:09;;;;;;;12.65;8.63;;;;;;;13.43;58.78;99635.53;5092144;28;20031;-79
2021/03/29 08:02:35;;;;;;;21.48;10.45;;;;;;;13.46;57.74;99645.13;5093470;28;20085;-81
2021/03/29 08:05:03;;;;;;;12.32;8.70;;;;;;;14.32;54.25;99644.03;5076033;28;20032;-82
2021/03/29 08:07:41;;;;;;;12.98;10.45;;;;;;;14.25;53.50;99645.44;5075197;28;20481;-80
2021/03/29 08:10:14;;;;;;;14.00;9.85;;;;;;;14.16;54.14;99636.09;5075590;28;20489;-79
2021/03/29 08:12:59;;;;;;;14.25;10.25;;;;;;;14.16;54.37;99649.84;5092281;28;20499;-79
2021/03/29 08:16:03;;;;;;;14.52;8.50;;;;;;;14.93;52.05;99647.47;5091968;28;20028;-84
2021/03/29 08:18:29;;;;;;;12.52;9.15;;;;;;;16.07;48.41;99634.31;5073167;28;20114;-78
2021/03/29 08:20:54;;;;;;;12.88;8.50;;;;;;;15.12;51.33;99638.56;5091177;28;20107;-79
2021/03/29 08:23:34;;;;;;;16.40;10.13;;;;;;;14.29;52.87;99643.75;5091689;28;20425;-83
2021/03/29 08:26:20;;;;;;;13.68;9.43;;;;;;;14.83;51.83;99630.97;5092840;28;20035;-80
2021/03/29 08:29:08;;;;;;;10.93;8.20;;;;;;;15.55;49.66;99643.28;5092182;28;20028;-81
2021/03/29 08:31:59;;;;;;;9.95;7.70;;;;;;;16.18;48.35;99646.09;5076457;28;20423;-81
2021/03/29 08:34:32;;;;;;;11.82;9.02;;;;;;;15.23;50.07;99632.69;5097335;28;21013;-81
2021/03/29 08:37:05;;;;;;;15.27;9.48;;;;;;;14.25;52.53;99639.94;5095270;28;20043;-80
2021/03/29 08:39:37;;;;;;;15.23;10.13;;;;;;;13.39;55.71;99640.72;5073387;28;20483;-79
2021/03/29 08:42:04;;;;;;;10.73;7.68;;;;;;;13.43;55.94;99624.53;5091494;28;20031;-80
2021/03/29 08:44:30;;;;;;;12.68;9.23;;;;;;;14.38;54.95;99642.13;5076355;28;20035;-80
2021/03/29 08:46:56;;;;;;;14.55;8.77;;;;;;;14.50;52.69;99645.41;5095517;28;20043;-79
2021/03/29 08:49:23;;;;;;;14.32;10.02;;;;;;;14.55;52.28;99656.41;5080575;28;20035;-81
2021/03/29 08:51:50;;;;;;;13.88;9.52;;;;;;;14.73;52.40;99646.72;5099050;28;20020;-80
2021/03/29 08:54:16;;;;;;;13.60;9.20;;;;;;;15.02;52.33;99645.78;5079828;28;20020;-80
2021/03/29 08:56:44;;;;;;;11.90;8.73;;;;;;;14.85;53.22;99641.69;5098739;28;20074;-82
2021/03/29 08:59:10;;;;;;;12.80;8.55;;;;;;;15.07;50.99;99644.09;5098960;28;20445;-81
2021/03/29 09:01:35;;;;;;;11.73;9.02;;;;;;;15.55;50.06;99651.56;5062981;28;20060;-80
2021/03/29 09:04:02;;;;;;;13.88;8.45;;;;;;;14.92;51.20;99632.03;5078707;28;20484;-82
2021/03/29 09:06:31;;;;;;;11.95;8.40;;;;;;;15.54;50.85;99638.88;5078247;28;20023;-81
2021/03/29 09:08:57;;;;;;;12.73;8.57;;;;;;;14.63;52.83;99642.06;5095803;28;20051;-81
2021/03/29 09:11:22;;;;;;;12.45;9.32;;;;;;;14.30;53.60;99649.00;5094888;28;20060;-80
2021/03/29 09:13:52;;;;;;;19.00;8.43;;;;;;;13.91;54.61;99625.91;5077136;28;20046;-82
2021/03/29 09:16:22;;;;;;;16.13;9.57;;;;;;;13.39;56.96;99634.41;5077026;28;20536;-80
2021/03/29 09:18:47;;;;;;;14.70;9.45;;;;;;;13.17;57.95;99628.31;5077379;28;20028;-80
2021/03/29 09:21:22;;;;;;;13.35;10.45;;;;;;;12.73;59.12;99628.69;5096819;28;20020;-81
2021/03/29 09:23:47;;;;;;;14.18;9.35;;;;;;;12.84;59.39;99624.06;5098882;28;20024;-80
2021/03/29 09:26:13;;;;;;;12.32;8.90;;;;;;;13.53;57.17;99630.03;5096234;28;20035;-80
2021/03/29 09:28:44;;;;;;;16.35;10.52;;;;;;;13.78;56.79;99626.47;5095760;28;20032;-79
2021/03/29 09:31:18;;;;;;;10.90;8.35;;;;;;;15.22;52.66;99633.00;5077817;28;20024;-79
2021/03/29 09:33:44;;;;;;;14.48;8.80;;;;;;;14.83;53.55;99639.25;5096738;28;20380;-80
2021/03/29 09:36:15;;;;;;;14.27;8.88;;;;;;;15.53;51.53;99635.31;5097778;28;20389;-81
2021/03/29 09:38:44;;;;;;;14.85;7.35;;;;;;;16.41;49.26;99634.28;5096205;28;20134;-82
2021/03/29 09:41:22;;;;;;;13.43;8.70;;;;;;;16.37;49.09;99630.44;5100075;28;20020;-82
2021/03/29 09:43:50;;;;;;;11.18;8.10;;;;;;;16.59;48.55;99634.38;5080018;28;20024;-81
2021/03/29 09:46:17;;;;;;;11.20;8.10;;;;;;;16.88;47.09;99625.22;5100809;28;20500;-83
2021/03/29 09:48:43;;;;;;;11.63;7.07;;;;;;;17.91;45.55;99633.44;5100638;28;20039;-82
2021/03/29 09:51:20;;;;;;;11.80;8.38;;;;;;;17.47;45.75;99621.91;5080256;28;20057;-81
2021/03/29 09:53:46;;;;;;;9.00;7.25;;;;;;;18.82;43.65;99625.41;5077409;28;20031;-80
2021/03/29 09:56:11;;;;;;;16.88;8.52;;;;;;;18.16;45.49;99618.31;5093139;28;20099;-78
2021/03/29 09:58:44;;;;;;;10.90;7.88;;;;;;;19.45;41.21;99620.69;5075508;28;20047;-80
2021/03/29 10:01:26;;;;;;;14.15;7.75;;;;;;;19.08;41.89;99619.00;5094469;28;20027;-80
2021/03/29 10:04:01;;;;;;;10.93;7.22;;;;;;;19.48;41.64;99614.56;5075903;28;20051;-79
2021/03/29 10:06:29;;;;;;;10.50;7.25;;;;;;;19.65;40.98;99608.31;5075567;28;20421;-81
2021/03/29 10:09:01;;;;;;;11.18;7.60;;;;;;;18.85;42.70;99613.69;5075637;28;20040;-79
2021/03/29 10:11:41;;;;;;;10.93;7.50;;;;;;;19.76;40.63;99601.38;5093698;28;20023;-80
2021/03/29 10:14:07;;;;;;;11.73;7.03;;;;;;;20.96;38.02;99601.22;5093612;28;20060;-78
2021/03/29 10:16:32;;;;;;;8.82;7.05;;;;;;;19.51;40.49;99610.31;5075666;28;20082;-80
2021/03/29 10:19:16;;;;;;;8.40;6.80;;;;;;;19.76;41.42;99596.66;5093246;28;20123;-79
2021/03/29 10:22:03;;;;;;;11.02;8.23;;;;;;;19.49;40.95;99595.91;5075163;28;20032;-82
2021/03/29 10:24:31;;;;;;;10.35;7.28;;;;;;;20.16;39.74;99599.53;5075231;28;20028;-80
2021/03/29 10:26:59;;;;;;;10.63;8.15;;;;;;;21.08;37.92;99587.50;5093353;28;20792;-80
2021/03/29 10:29:30;;;;;;;8.98;7.28;;;;;;;21.44;37.26;99595.59;5075648;28;20026;-80
2021/03/29 10:31:57;;;;;;;7.93;6.50;;;;;;;21.21;36.79;99570.69;5094013;28;20016;-79
2021/03/29 10:34:22;;;;;;;12.02;7.22;;;;;;;21.06;37.36;99579.47;5093486;28;20024;-79
2021/03/29 10:36:48;;;;;;;9.85;5.85;;;;;;;20.54;38.92;99569.34;5074751;28;20018;-81
2021/03/29 10:39:13;;;;;;;7.50;5.70;;;;;;;20.87;38.06;99572.53;5094038;28;20035;-82
2021/03/29 10:41:40;;;;;;;9.90;5.03;;;;;;;22.11;35.84;99571.66;5093405;28;20063;-80
2021/03/29 10:44:05;;;;;;;8.25;4.25;;;;;;;22.71;33.65;99567.88;5075100;28;20024;-82
2021/03/29 10:46:32;;;;;;;8.50;4.63;;;;;;;23.33;33.64;99574.38;5083001;28;20546;-82
2021/03/29 10:48:57;;;;;;;6.10;4.32;;;;;;;23.14;33.68;99560.06;5083753;28;20051;-82
2021/03/29 10:51:22;;;;;;;5.45;4.25;;;;;;;22.65;33.63;99552.41;5080312;28;20362;-81
2021/03/29 10:53:48;;;;;;;7.47;5.28;;;;;;;23.15;33.05;99552.50;5077306;28;20077;-82
2021/03/29 10:56:13;;;;;;;7.05;4.30;;;;;;;23.62;32.17;99542.75;5094358;28;20393;-82
2021/03/29 10:58:39;;;;;;;9.35;5.40;;;;;;;22.15;34.16;99544.75;5093064;28;20035;-79
2021/03/29 11:01:04;;;;;;;8.15;4.93;;;;;;;22.66;34.00;99531.78;5093131;28;20026;-80
2021/03/29 11:03:32;;;;;;;7.82;5.20;;;;;;;22.96;32.93;99543.75;5093121;28;20363;-81
2021/03/29 11:05:58;;;;;;;6.47;4.43;;;;;;;21.18;34.99;99529.59;5073743;28;20468;-80
2021/03/29 11:08:23;;;;;;;8.43;4.35;;;;;;;20.76;36.10;99522.78;5091782;28;20067;-79
2021/03/29 11:10:51;;;;;;;7.15;4.85;;;;;;;20.57;36.83;99513.91;5091507;28;20127;-80
2021/03/29 11:13:16;;;;;;;7.72;4.63;;;;;;;18.17;41.29;99512.72;5091983;28;20380;-82
2021/03/29 11:15:42;;;;;;;12.43;5.93;;;;;;;18.30;41.57;99501.97;5092829;28;20032;-82
2021/03/29 11:18:08;;;;;;;5.90;4.63;;;;;;;18.01;42.19;99503.06;5079266;28;20069;-83
2021/03/29 11:20:35;;;;;;;12.38;5.05;;;;;;;17.30;43.22;99499.88;5081575;28;20012;-83
2021/03/29 11:23:00;;;;;;;8.32;7.28;;;;;;;16.89;43.61;99496.91;5085013;28;20035;-85
2021/03/29 11:25:26;;;;;;;6.28;4.97;;;;;;;16.95;44.21;99482.72;5103069;28;20028;-83
2021/03/29 11:27:52;;;;;;;8.00;6.65;;;;;;;17.05;44.09;99487.28;5100081;28;20396;-82
2021/03/29 11:30:20;;;;;;;7.65;5.93;;;;;;;16.83;44.56;99484.28;5079748;28;20020;-81
2021/03/29 11:32:46;;;;;;;7.35;5.15;;;;;;;16.88;44.00;99487.81;5064469;28;20532;-83
2021/03/29 11:35:12;;;;;;;7.10;4.82;;;;;;;16.82;44.70;99480.69;5087678;28;20028;-83
2021/03/29 11:37:38;;;;;;;6.25;4.75;;;;;;;16.67;44.32;99467.09;5085513;28;20727;-83